createdAt,value
2022-10-16T00:02:13.607Z,100750.88
2022-10-16T00:05:16.805Z,100755.50
2022-10-16T00:08:22.730Z,100759.38
2022-10-16T00:11:27.467Z,100756.84
2022-10-16T00:14:32.372Z,100757.09
2022-10-16T00:17:35.135Z,100759.03
2022-10-16T00:20:38.271Z,100768.69
2022-10-16T00:23:41.844Z,100765.84
2022-10-16T00:26:44.781Z,100763.94
2022-10-16T00:29:52.729Z,100771.38
2022-10-16T00:32:55.661Z,100778.78
2022-10-16T00:36:00.357Z,100792.38
2022-10-16T00:39:03.426Z,100789.00
2022-10-16T00:42:10.485Z,100774.34
2022-10-16T00:45:15.092Z,100770.41
2022-10-16T00:48:17.933Z,100772.53
2022-10-16T00:51:23.761Z,100785.03
2022-10-16T00:54:30.336Z,100786.16
2022-10-16T00:57:33.057Z,100787.34
2022-10-16T01:00:37.362Z,100786.84
2022-10-16T01:03:40.346Z,100797.06
2022-10-16T01:06:52.507Z,100791.31
2022-10-16T01:10:07.365Z,100794.28
2022-10-16T01:13:14.105Z,100795.66
2022-10-16T01:16:26.452Z,100800.91
2022-10-16T01:19:43.222Z,100800.28
2022-10-16T01:22:58.153Z,100794.97
2022-10-16T01:26:17.524Z,100801.91
2022-10-16T01:29:27.412Z,100803.59
2022-10-16T01:32:35.891Z,100802.75
2022-10-16T01:35:41.365Z,100817.41
2022-10-16T01:38:49.628Z,100820.16
2022-10-16T01:42:00.395Z,100825.19
2022-10-16T01:45:08.748Z,100819.13
2022-10-16T01:48:13.906Z,100814.47
2022-10-16T01:51:18.863Z,100806.72
2022-10-16T01:54:22.692Z,100810.31
2022-10-16T01:57:27.042Z,100819.72
2022-10-16T02:00:32.541Z,100824.13
2022-10-16T02:03:36.744Z,100828.53
2022-10-16T02:06:39.461Z,100842.91
2022-10-16T02:09:42.780Z,100842.66
2022-10-16T02:12:51.672Z,100834.59
2022-10-16T02:15:55.722Z,100846.19
2022-10-16T02:18:58.446Z,100858.91
2022-10-16T02:22:07.815Z,100859.25
2022-10-16T02:25:14.233Z,100863.09
2022-10-16T02:28:21.506Z,100858.34
2022-10-16T02:31:30.005Z,100860.84
2022-10-16T02:34:35.142Z,100869.44
2022-10-16T02:37:40.315Z,100870.56
2022-10-16T02:40:43.695Z,100864.19
2022-10-16T02:43:46.436Z,100863.53
2022-10-16T02:46:50.350Z,100872.50
2022-10-16T02:49:53.118Z,100867.84
2022-10-16T02:52:55.737Z,100876.97
2022-10-16T02:55:58.496Z,100871.50
2022-10-16T02:59:01.231Z,100857.97
2022-10-16T03:02:05.190Z,100853.56
2022-10-16T03:05:09.154Z,100872.91
2022-10-16T03:08:11.732Z,100873.22
2022-10-16T03:11:14.447Z,100884.56
2022-10-16T03:14:17.213Z,100878.78
2022-10-16T03:17:21.135Z,100880.72
2022-10-16T03:20:23.713Z,100882.66
2022-10-16T03:23:26.324Z,100892.41
2022-10-16T03:26:28.972Z,100896.84
2022-10-16T03:29:33.191Z,100890.22
2022-10-16T03:32:37.097Z,100896.34
2022-10-16T03:35:39.726Z,100890.81
2022-10-16T03:38:42.277Z,100897.44
2022-10-16T03:41:44.968Z,100902.69
2022-10-16T03:44:47.675Z,100910.44
2022-10-16T03:47:51.569Z,100910.72
2022-10-16T03:50:54.389Z,100934.22
2022-10-16T03:53:56.950Z,100935.88
2022-10-16T03:56:59.620Z,100936.16
2022-10-16T04:00:02.197Z,100930.06
2022-10-16T04:03:06.144Z,100928.16
2022-10-16T04:06:09.886Z,100935.88
2022-10-16T04:09:12.517Z,100940.59
2022-10-16T04:12:15.211Z,100938.66
2022-10-16T04:15:18.209Z,100935.88
2022-10-16T04:18:22.194Z,100944.19
2022-10-16T04:21:25.119Z,100937.03
2022-10-16T04:24:27.756Z,100928.19
2022-10-16T04:27:32.205Z,100938.41
2022-10-16T04:30:35.487Z,100933.47
2022-10-16T04:33:39.371Z,100921.88
2022-10-16T04:36:42.075Z,100924.09
2022-10-16T04:39:45.814Z,100925.47
2022-10-16T04:42:48.376Z,100911.94
2022-10-16T04:45:52.082Z,100920.78
2022-10-16T04:48:55.982Z,100924.09
2022-10-16T04:51:58.600Z,100921.91
2022-10-16T04:55:03.444Z,100924.13
2022-10-16T04:58:06.396Z,100926.63
2022-10-16T05:01:09.076Z,100934.88
2022-10-16T05:04:13.233Z,100924.41
2022-10-16T05:07:15.914Z,100943.47
2022-10-16T05:10:19.033Z,100942.38
2022-10-16T05:13:21.776Z,100949.81
2022-10-16T05:16:24.567Z,100960.84
2022-10-16T05:19:29.262Z,100960.59
2022-10-16T05:22:32.294Z,100951.19
2022-10-16T05:25:34.825Z,100949.53
2022-10-16T05:28:37.568Z,100949.53
2022-10-16T05:31:40.164Z,100953.41
2022-10-16T05:34:44.202Z,100960.88
2022-10-16T05:37:46.889Z,100975.22
2022-10-16T05:40:53.411Z,100984.88
2022-10-16T05:43:56.092Z,100987.09
2022-10-16T05:46:58.674Z,100977.97
2022-10-16T05:50:02.652Z,100975.75
2022-10-16T05:53:05.588Z,100974.66
2022-10-16T05:56:11.377Z,100968.59
2022-10-16T05:59:14.090Z,100976.31
2022-10-16T06:02:16.866Z,100979.06
2022-10-16T06:05:20.745Z,100981.81
2022-10-16T06:08:24.983Z,100987.06
2022-10-16T06:11:29.405Z,100987.06
2022-10-16T06:14:32.131Z,100979.31
2022-10-16T06:17:34.864Z,100984.84
2022-10-16T06:20:38.946Z,100995.31
2022-10-16T06:23:41.765Z,100993.63
2022-10-16T06:26:44.397Z,100998.59
2022-10-16T06:29:47.377Z,101008.53
2022-10-16T06:32:50.089Z,101004.94
2022-10-16T06:35:54.007Z,101023.16
2022-10-16T06:38:56.631Z,101025.34
2022-10-16T06:45:07.480Z,101041.63
2022-10-16T06:48:10.053Z,101042.16
2022-10-16T06:51:15.394Z,101045.47
2022-10-16T06:54:18.782Z,101038.00
2022-10-16T06:57:21.386Z,101039.94
2022-10-16T07:03:31.534Z,101063.94
2022-10-16T07:06:36.117Z,101050.38
2022-10-16T07:09:38.669Z,101072.72
2022-10-16T07:12:41.395Z,101071.84
2022-10-16T07:15:43.963Z,101069.63
2022-10-16T07:18:47.525Z,101058.81
2022-10-16T07:21:51.451Z,101068.19
2022-10-16T07:24:53.985Z,101057.00
2022-10-16T07:27:57.855Z,101062.69
2022-10-16T07:31:03.147Z,101068.28
2022-10-16T07:34:05.744Z,101065.75
2022-10-16T07:37:09.827Z,101071.00
2022-10-16T07:40:12.726Z,101075.13
2022-10-16T07:43:16.940Z,101080.91
2022-10-16T07:46:20.552Z,101070.88
2022-10-16T07:49:23.140Z,101079.72
2022-10-16T07:52:27.191Z,101060.53
2022-10-16T07:55:29.745Z,101079.66
2022-10-16T07:58:32.609Z,101100.50
2022-10-16T08:01:35.394Z,101097.44
2022-10-16T08:04:37.975Z,101104.41
2022-10-16T08:07:42.120Z,101119.56
2022-10-16T08:10:44.722Z,101118.97
2022-10-16T08:13:47.442Z,101105.31
2022-10-16T08:16:50.127Z,101105.03
2022-10-16T08:19:52.686Z,101104.16
2022-10-16T08:22:56.786Z,101105.56
2022-10-16T08:26:05.609Z,101118.78
2022-10-16T08:29:08.363Z,101113.22
2022-10-16T08:32:11.005Z,101116.00
2022-10-16T08:35:15.099Z,101119.81
2022-10-16T08:38:19.115Z,101126.97
2022-10-16T08:41:58.765Z,101129.16
2022-10-16T08:45:17.552Z,101126.03
2022-10-16T08:48:26.965Z,101128.41
2022-10-16T08:51:33.215Z,101131.84
2022-10-16T08:54:43.312Z,101124.25
2022-10-16T08:57:46.117Z,101134.75
2022-10-16T09:00:52.431Z,101132.22
2022-10-16T09:04:26.966Z,101136.00
2022-10-16T09:07:35.883Z,101145.03
2022-10-16T09:10:54.452Z,101147.00
2022-10-16T09:14:05.921Z,101149.63
2022-10-16T09:17:22.004Z,101153.06
2022-10-16T09:20:38.378Z,101150.66
2022-10-16T09:23:40.999Z,101148.31
2022-10-16T09:26:45.418Z,101157.25
2022-10-16T09:29:48.141Z,101156.44
2022-10-16T09:32:54.408Z,101156.78
2022-10-16T09:36:00.272Z,101151.94
2022-10-16T09:39:07.431Z,101162.41
2022-10-16T09:42:12.747Z,101169.16
2022-10-16T09:45:24.469Z,101175.66
2022-10-16T09:48:32.942Z,101174.81
2022-10-16T09:51:37.918Z,101182.38
2022-10-16T09:54:51.642Z,101177.09
2022-10-16T09:57:56.727Z,101181.84
2022-10-16T10:00:59.858Z,101194.38
2022-10-16T10:04:03.859Z,101187.63
2022-10-16T10:07:06.770Z,101186.09
2022-10-16T10:10:22.883Z,101191.03
2022-10-16T10:13:28.192Z,101187.44
2022-10-16T10:16:30.834Z,101195.91
2022-10-16T10:19:41.122Z,101193.41
2022-10-16T10:22:46.926Z,101193.81
2022-10-16T10:25:57.535Z,101202.28
2022-10-16T10:29:09.309Z,101215.50
2022-10-16T10:32:25.712Z,101224.97
2022-10-16T10:35:35.767Z,101231.59
2022-10-16T10:38:47.667Z,101229.72
2022-10-16T10:42:09.892Z,101227.69
2022-10-16T10:45:28.523Z,101216.31
2022-10-16T10:48:54.007Z,101217.25
2022-10-16T10:52:08.608Z,101212.88
2022-10-16T10:55:21.697Z,101229.34
2022-10-16T10:58:50.853Z,101210.88
2022-10-16T11:01:58.597Z,101220.03
2022-10-16T11:05:21.353Z,101221.50
2022-10-16T11:08:32.974Z,101224.50
2022-10-16T11:11:40.198Z,101219.13
2022-10-16T11:14:48.091Z,101222.44
2022-10-16T11:17:57.027Z,101223.94
2022-10-16T11:21:04.595Z,101225.19
2022-10-16T11:24:18.133Z,101222.69
2022-10-16T11:27:37.411Z,101222.91
2022-10-16T11:30:45.584Z,101221.75
2022-10-16T11:33:57.043Z,101227.72
2022-10-16T11:37:07.148Z,101213.56
2022-10-16T11:40:22.248Z,101217.00
2022-10-16T11:43:30.896Z,101222.25
2022-10-16T11:46:47.838Z,101224.56
2022-10-16T11:50:06.870Z,101224.06
2022-10-16T11:53:19.051Z,101224.09
2022-10-16T11:56:23.277Z,101233.63
2022-10-16T11:59:35.492Z,101236.75
2022-10-16T12:02:50.817Z,101236.28
2022-10-16T12:06:08.715Z,101232.84
2022-10-16T12:09:21.899Z,101245.81
2022-10-16T12:12:31.444Z,101251.41
2022-10-16T12:19:13.949Z,101253.84
2022-10-16T12:22:20.928Z,101260.13
2022-10-16T12:25:26.769Z,101260.25
2022-10-16T12:28:31.114Z,101254.19
2022-10-16T12:31:54.493Z,101257.81
2022-10-16T12:34:58.039Z,101266.63
2022-10-16T12:38:19.331Z,101268.31
2022-10-16T12:41:28.263Z,101271.69
2022-10-16T12:44:34.994Z,101271.56
2022-10-16T12:47:40.740Z,101271.00
2022-10-16T12:50:43.401Z,101280.66
2022-10-16T12:53:47.437Z,101274.88
2022-10-16T12:57:05.599Z,101276.91
2022-10-16T13:00:22.017Z,101279.63
2022-10-16T13:03:55.519Z,101284.50
2022-10-16T13:07:11.320Z,101292.34
2022-10-16T13:10:27.590Z,101291.41
2022-10-16T13:13:49.042Z,101297.25
2022-10-16T13:17:04.847Z,101303.75
2022-10-16T13:20:19.528Z,101294.44
2022-10-16T13:23:28.412Z,101301.47
2022-10-16T13:26:43.443Z,101313.59
2022-10-16T13:29:46.660Z,101313.06
2022-10-16T13:36:00.142Z,101320.44
2022-10-16T13:39:11.636Z,101314.75
2022-10-16T13:42:27.948Z,101313.53
2022-10-16T13:45:31.044Z,101315.38
2022-10-16T13:48:35.697Z,101308.91
2022-10-16T13:51:38.371Z,101300.72
2022-10-16T13:54:42.331Z,101311.38
2022-10-16T13:57:46.906Z,101320.44
2022-10-16T14:00:57.929Z,101326.34
2022-10-16T14:04:06.625Z,101325.41
2022-10-16T14:07:20.638Z,101329.66
2022-10-16T14:10:27.458Z,101331.41
2022-10-16T14:13:36.227Z,101337.28
2022-10-16T14:16:43.132Z,101341.91
2022-10-16T14:19:51.499Z,101337.34
2022-10-16T14:23:03.017Z,101341.66
2022-10-16T14:26:25.294Z,101336.44
2022-10-16T14:29:32.528Z,101335.31
2022-10-16T14:32:35.122Z,101340.66
2022-10-16T14:35:40.889Z,101339.09
2022-10-16T14:38:50.438Z,101336.09
2022-10-16T14:41:54.592Z,101361.91
2022-10-16T14:44:58.968Z,101351.50
2022-10-16T14:48:04.666Z,101359.94
2022-10-16T14:51:10.987Z,101359.53
2022-10-16T14:54:15.136Z,101368.97
2022-10-16T14:57:20.075Z,101369.34
2022-10-16T15:00:26.223Z,101373.50
2022-10-16T15:03:28.802Z,101371.56
2022-10-16T15:06:31.541Z,101372.00
2022-10-16T15:09:34.052Z,101373.06
2022-10-16T15:12:36.856Z,101389.69
2022-10-16T15:15:44.559Z,101379.53
2022-10-16T15:18:47.114Z,101392.00
2022-10-16T15:21:50.151Z,101392.31
2022-10-16T15:24:52.705Z,101404.09
2022-10-16T15:27:55.325Z,101409.34
2022-10-16T15:30:59.451Z,101402.13
2022-10-16T15:34:05.208Z,101405.38
2022-10-16T15:37:08.002Z,101407.94
2022-10-16T15:40:11.883Z,101423.91
2022-10-16T15:43:14.605Z,101419.88
2022-10-16T15:46:20.917Z,101429.34
2022-10-16T15:49:23.506Z,101440.03
2022-10-16T15:52:26.693Z,101444.84
2022-10-16T15:55:29.765Z,101447.72
2022-10-16T15:58:32.609Z,101449.69
2022-10-16T16:01:37.273Z,101452.03
2022-10-16T16:04:44.650Z,101457.09
2022-10-16T16:07:47.713Z,101448.56
2022-10-16T16:10:59.975Z,101453.91
2022-10-16T16:14:02.742Z,101458.69
2022-10-16T16:17:06.817Z,101459.34
2022-10-16T16:20:10.797Z,101470.78
2022-10-16T16:23:13.500Z,101474.44
2022-10-16T16:26:24.825Z,101488.88
2022-10-16T16:29:27.536Z,101495.88
2022-10-16T16:32:31.672Z,101489.00
2022-10-16T16:35:34.266Z,101489.00
2022-10-16T16:38:37.206Z,101504.00
2022-10-16T16:41:39.790Z,101498.75
2022-10-16T16:44:42.483Z,101511.25
2022-10-16T16:47:46.608Z,101521.50
2022-10-16T16:50:49.182Z,101531.53
2022-10-16T16:53:53.832Z,101537.91
2022-10-16T16:56:56.671Z,101542.59
2022-10-16T16:59:59.405Z,101539.53
2022-10-16T17:03:03.569Z,101556.19
2022-10-16T17:06:08.554Z,101557.28
2022-10-16T17:09:14.164Z,101564.97
2022-10-16T17:12:16.771Z,101561.34
2022-10-16T17:15:19.636Z,101569.38
2022-10-16T17:18:24.611Z,101573.19
2022-10-16T17:21:28.070Z,101575.66
2022-10-16T17:24:30.782Z,101578.38
2022-10-16T17:27:34.348Z,101582.78
2022-10-16T17:30:37.383Z,101587.97
2022-10-16T17:33:41.800Z,101594.28
2022-10-16T17:36:46.807Z,101593.94
2022-10-16T17:39:51.889Z,101604.13
2022-10-16T17:42:54.621Z,101610.94
2022-10-16T17:45:57.362Z,101608.16
2022-10-16T17:49:01.399Z,101608.38
2022-10-16T17:52:04.068Z,101600.88
2022-10-16T17:55:07.683Z,101613.75
2022-10-16T17:58:10.458Z,101613.94
2022-10-16T18:01:14.609Z,101611.09
2022-10-16T18:04:19.004Z,101618.81
2022-10-16T18:07:21.606Z,101620.66
2022-10-16T18:10:24.288Z,101625.06
2022-10-16T18:13:26.868Z,101615.56
2022-10-16T18:16:31.278Z,101626.31
2022-10-16T18:19:35.709Z,101627.94
2022-10-16T18:22:38.798Z,101629.28
2022-10-16T18:25:41.577Z,101635.06
2022-10-16T18:28:44.753Z,101631.72
2022-10-16T18:31:47.526Z,101635.81
2022-10-16T18:34:52.121Z,101653.94
2022-10-16T18:37:58.929Z,101658.56
2022-10-16T18:41:01.780Z,101666.78
2022-10-16T18:44:04.413Z,101669.38
2022-10-16T18:47:07.161Z,101672.09
2022-10-16T18:50:11.999Z,101679.19
2022-10-16T18:53:14.976Z,101680.81
2022-10-16T18:56:20.060Z,101675.19
2022-10-16T18:59:23.083Z,101660.78
2022-10-16T19:02:25.756Z,101648.34
2022-10-16T19:05:30.010Z,101662.38
2022-10-16T19:08:33.763Z,101685.84
2022-10-16T19:11:41.313Z,101688.59
2022-10-16T19:14:44.706Z,101686.38
2022-10-16T19:17:47.465Z,101698.41
2022-10-16T19:20:51.505Z,101687.22
2022-10-16T19:23:54.785Z,101699.50
2022-10-16T19:26:58.021Z,101698.94
2022-10-16T19:30:00.631Z,101685.63
2022-10-16T19:33:03.381Z,101691.75
2022-10-16T19:36:11.986Z,101702.53
2022-10-16T19:39:17.237Z,101707.53
2022-10-16T19:42:20.160Z,101717.22
2022-10-16T19:45:22.985Z,101722.47
2022-10-16T19:48:25.741Z,101714.72
2022-10-16T19:51:30.975Z,101718.56
2022-10-16T19:54:35.698Z,101722.13
2022-10-16T19:57:39.538Z,101740.94
2022-10-16T20:00:42.301Z,101728.50
2022-10-16T20:03:45.301Z,101731.50
2022-10-16T20:06:49.427Z,101733.56
2022-10-16T20:09:52.123Z,101729.41
2022-10-16T20:12:54.816Z,101746.19
2022-10-16T20:15:57.754Z,101750.28
2022-10-16T20:19:01.186Z,101751.63
2022-10-16T20:22:05.264Z,101758.22
2022-10-16T20:25:10.133Z,101763.75
2022-10-16T20:28:15.695Z,101760.38
2022-10-16T20:31:22.541Z,101766.72
2022-10-16T20:34:25.342Z,101776.06
2022-10-16T20:37:29.747Z,101772.00
2022-10-16T20:40:35.282Z,101769.25
2022-10-16T20:43:44.534Z,101770.91
2022-10-16T20:46:47.094Z,101768.38
2022-10-16T20:49:49.777Z,101765.88
2022-10-16T20:52:53.886Z,101772.59
2022-10-16T20:55:56.485Z,101784.19
2022-10-16T20:58:59.369Z,101777.00
2022-10-16T21:02:02.051Z,101784.78
2022-10-16T21:05:05.355Z,101781.69
2022-10-16T21:08:09.396Z,101779.50
2022-10-16T21:11:13.579Z,101789.72
2022-10-16T21:14:16.355Z,101791.38
2022-10-16T21:17:19.616Z,101780.84
2022-10-16T21:20:22.335Z,101780.84
2022-10-16T21:23:26.464Z,101782.78
2022-10-16T21:26:30.282Z,101794.63
2022-10-16T21:29:33.332Z,101791.03
2022-10-16T21:32:36.753Z,101801.22
2022-10-16T21:35:39.467Z,101803.47
2022-10-16T21:38:43.655Z,101818.44
2022-10-16T21:41:47.915Z,101817.59
2022-10-16T21:44:50.629Z,101829.19
2022-10-16T21:47:53.207Z,101832.19
2022-10-16T21:50:55.931Z,101844.91
2022-10-16T21:54:00.177Z,101836.28
2022-10-16T22:00:11.395Z,101844.47
2022-10-16T22:03:14.002Z,101841.13
2022-10-16T22:06:18.656Z,101837.78
2022-10-16T22:09:22.867Z,101840.78
2022-10-16T22:12:25.620Z,101830.50
2022-10-16T22:15:28.430Z,101825.25
2022-10-16T22:18:31.823Z,101827.75
2022-10-16T22:21:35.760Z,101833.28
2022-10-16T22:24:42.681Z,101818.53
2022-10-16T22:27:45.297Z,101812.13
2022-10-16T22:30:48.078Z,101818.13
2022-10-16T22:33:55.370Z,101831.41
2022-10-16T22:36:58.041Z,101826.41
2022-10-16T22:40:02.094Z,101830.44
2022-10-16T22:43:07.012Z,101824.34
2022-10-16T22:46:11.918Z,101823.78
2022-10-16T22:49:16.606Z,101827.59
2022-10-16T22:52:19.337Z,101826.53
2022-10-16T22:55:23.899Z,101836.47
2022-10-16T22:58:26.667Z,101846.97
2022-10-16T23:01:33.247Z,101847.34
2022-10-16T23:04:35.881Z,101859.78
2022-10-16T23:07:39.142Z,101853.56
2022-10-16T23:10:45.003Z,101836.56
2022-10-16T23:13:47.909Z,101841.09
2022-10-16T23:16:51.123Z,101827.31
2022-10-16T23:19:53.865Z,101841.78
2022-10-16T23:22:56.616Z,101834.69
2022-10-16T23:26:00.682Z,101832.50
2022-10-16T23:29:03.454Z,101838.13
2022-10-16T23:32:06.370Z,101839.31
2022-10-16T23:35:09.746Z,101848.75
2022-10-16T23:38:12.420Z,101847.16
2022-10-16T23:41:17.712Z,101849.31
2022-10-16T23:44:20.255Z,101849.91
2022-10-16T23:47:23.006Z,101851.34
2022-10-16T23:50:25.629Z,101849.44
2022-10-16T23:53:28.367Z,101861.88
2022-10-16T23:56:32.571Z,101860.03
2022-10-16T23:59:35.182Z,101862.31
